aviador You're here:

YSDU Decoded Metar

DUBBO in AUSTRALIA
Report Time2018-01-17 18:00:00
UTC Time2018-01-17 18:14:20
Flight Rules vfr VFR
Wind080° at 11 kt
W.Decomp.*RWY 05: 10.3 kt HW 3.8 kt RCW
RWY 11: 8.4 kt HW 7.1 kt LCW
W.Rank080° ranks 6
Current wind is above 080° avg. (8.7)
Visibility9999 m
Phenomena:N/A
Clouds:N/A
Expected CloudBase > 4,400 ft AGL from Temp-Dew spread
CeilingNone
Temp18°C (ISA +5)
Dew Point07°C (49% RH)
AAT13.4°C
QNH1018 hPa
Density Alt1,434 ft
Elevation902 ft
Report Wrong Elevation
Raw Report
METAR YSDU 171800Z AUTO 08011KT 9999 // NCD 18/07 Q1018=

Extra information for YSDU:More info

Metar Taf Metar & Taf Last 4 Metars F.Rules Stats Wind Profile Meteogram Temp Stats Airport Information Weather charts Add Link Nearby VenuesMetar ALERT Operation Metar Decoded Social comments